Time;durP1;ratioP1;P1;durP2;ratioP2;P2;SDS_P1;SDS_P2;PMS_P1;PMS_P2;Temp;Humidity;BMP_temperature;BMP_pressure;BME280_temperature;BME280_humidity;BME280_pressure;Samples;Min_cycle;Max_cycle;Signal;HPM_P1;HPM_P2
2023/06/27 00:01:40;;;;;;;4.38;2.17;;;;;;;19.07;43.63;96014.84;4975947;28;20265;-86
2023/06/27 00:04:06;;;;;;;3.60;2.20;;;;;;;19.10;43.93;96012.69;5000528;28;20184;-87
2023/06/27 00:06:31;;;;;;;2.88;2.00;;;;;;;19.03;43.95;96008.34;4985441;28;20221;-88
2023/06/27 00:08:56;;;;;;;4.03;2.10;;;;;;;19.05;44.05;96014.25;4969237;28;20393;-83
2023/06/27 00:11:22;;;;;;;4.28;1.92;;;;;;;18.94;44.42;96016.38;4974194;28;20196;-83
2023/06/27 00:13:48;;;;;;;5.63;1.95;;;;;;;18.89;44.57;96026.63;4966736;28;20216;-83
2023/06/27 00:16:13;;;;;;;6.45;2.13;;;;;;;18.88;44.87;96027.66;4973130;28;20196;-82
2023/06/27 00:18:40;;;;;;;4.13;1.98;;;;;;;18.83;44.58;96030.03;4969474;28;20285;-83
2023/06/27 00:21:06;;;;;;;3.78;2.17;;;;;;;18.93;44.80;96032.34;4944498;28;20288;-85
2023/06/27 00:23:34;;;;;;;7.05;2.17;;;;;;;18.91;44.58;96027.28;4973580;28;20193;-83
2023/06/27 00:26:01;;;;;;;6.32;2.25;;;;;;;18.88;44.98;96042.63;4948255;28;20196;-83
2023/06/27 00:28:27;;;;;;;3.97;2.30;;;;;;;18.81;44.86;96031.22;4952743;28;20185;-82
2023/06/27 00:30:52;;;;;;;2.15;1.77;;;;;;;18.75;44.91;96030.16;4975562;28;20263;-83
2023/06/27 00:33:18;;;;;;;5.32;2.13;;;;;;;18.74;44.80;96030.34;4964133;28;20296;-82
2023/06/27 00:35:43;;;;;;;7.43;2.38;;;;;;;18.72;45.26;96032.31;4960604;28;20196;-82
2023/06/27 00:38:08;;;;;;;4.57;1.85;;;;;;;18.70;45.57;96034.34;4968187;28;20237;-82
2023/06/27 00:40:33;;;;;;;4.13;2.20;;;;;;;18.68;44.90;96037.97;4965508;28;20196;-82
2023/06/27 00:42:59;;;;;;;3.38;1.90;;;;;;;18.62;45.33;96033.41;4966604;28;20200;-83
2023/06/27 00:45:24;;;;;;;4.03;1.85;;;;;;;18.66;45.51;96032.09;4972859;28;20219;-83
2023/06/27 00:47:51;;;;;;;3.97;2.00;;;;;;;18.61;45.78;96033.59;4938457;28;20188;-83
2023/06/27 00:50:17;;;;;;;2.80;1.80;;;;;;;18.59;45.56;96044.31;4968696;28;20191;-83
2023/06/27 00:52:43;;;;;;;3.53;1.90;;;;;;;18.50;46.20;96039.34;4970403;28;20239;-84
2023/06/27 00:55:08;;;;;;;3.63;2.17;;;;;;;18.56;45.92;96049.13;4966067;28;20704;-83
2023/06/27 00:57:34;;;;;;;4.57;2.17;;;;;;;18.58;46.25;96052.41;4935997;28;20287;-83
2023/06/27 00:59:59;;;;;;;4.97;2.20;;;;;;;18.59;45.85;96049.56;4950287;28;20200;-83
2023/06/27 01:02:25;;;;;;;6.22;2.10;;;;;;;18.54;46.01;96040.59;4935579;28;20181;-83
2023/06/27 01:04:51;;;;;;;5.00;2.13;;;;;;;18.51;46.23;96035.72;4964069;28;20205;-83
2023/06/27 01:07:23;;;;;;;6.30;2.03;;;;;;;18.49;46.32;96038.53;4966238;28;20188;-83
2023/06/27 01:09:51;;;;;;;5.10;2.30;;;;;;;18.54;46.44;96041.41;4966599;28;20725;-83
2023/06/27 01:12:23;;;;;;;5.00;2.03;;;;;;;18.52;45.97;96045.22;4941128;28;20193;-83
2023/06/27 01:14:50;;;;;;;6.43;1.92;;;;;;;18.52;46.43;96043.41;4958675;28;20212;-83
2023/06/27 01:17:16;;;;;;;7.80;2.55;;;;;;;18.54;46.28;96059.00;4957138;28;20192;-84
2023/06/27 01:19:44;;;;;;;4.82;1.98;;;;;;;18.43;46.91;96056.84;4972281;28;20204;-83
2023/06/27 01:22:13;;;;;;;4.10;2.17;;;;;;;18.47;46.63;96048.44;4954041;28;20208;-84
2023/06/27 01:24:38;;;;;;;6.00;2.10;;;;;;;18.49;46.30;96045.63;4964408;28;20205;-83
2023/06/27 01:27:04;;;;;;;4.68;2.15;;;;;;;18.44;46.80;96058.47;4969493;28;20276;-83
2023/06/27 01:29:30;;;;;;;4.57;2.05;;;;;;;18.44;46.30;96055.84;4972129;28;20630;-83
2023/06/27 01:32:04;;;;;;;6.15;2.20;;;;;;;18.36;46.84;96060.22;4951170;28;20215;-83
2023/06/27 01:34:36;;;;;;;4.25;1.90;;;;;;;18.36;47.09;96052.31;4947637;28;20211;-84
2023/06/27 01:37:23;;;;;;;3.58;2.22;;;;;;;18.34;47.51;96056.16;4951526;28;20193;-84
2023/06/27 01:40:02;;;;;;;7.43;2.10;;;;;;;18.34;46.71;96051.69;4954504;28;20780;-83
2023/06/27 01:42:31;;;;;;;4.25;2.85;;;;;;;18.27;47.47;96047.34;4955694;28;20211;-84
2023/06/27 01:44:57;;;;;;;5.85;2.30;;;;;;;18.24;47.56;96045.09;4961265;28;20200;-84
2023/06/27 01:47:23;;;;;;;4.93;1.88;;;;;;;18.21;48.33;96050.72;4950667;28;20204;-83
2023/06/27 01:49:48;;;;;;;8.25;2.53;;;;;;;18.15;47.94;96047.00;4968709;28;20332;-84
2023/06/27 01:52:13;;;;;;;4.05;2.15;;;;;;;18.10;48.87;96044.91;4950806;28;20185;-84
2023/06/27 01:54:43;;;;;;;4.55;2.08;;;;;;;17.90;49.45;96043.03;4966775;28;20223;-83
2023/06/27 01:57:09;;;;;;;6.30;2.22;;;;;;;17.75;49.97;96049.06;4962212;28;20184;-84
2023/06/27 01:59:34;;;;;;;5.47;2.20;;;;;;;17.81;49.91;96043.09;4964155;28;20221;-83
2023/06/27 02:02:00;;;;;;;4.47;2.30;;;;;;;17.81;49.54;96040.47;4953747;28;20192;-85
2023/06/27 02:04:25;;;;;;;6.22;2.25;;;;;;;17.78;50.14;96053.16;4947520;28;20329;-83
2023/06/27 02:06:50;;;;;;;9.00;2.63;;;;;;;17.76;50.10;96045.47;4965778;28;20224;-85
2023/06/27 02:09:16;;;;;;;3.97;2.28;;;;;;;17.57;51.20;96043.31;4966001;28;20287;-84
2023/06/27 02:11:41;;;;;;;4.20;2.20;;;;;;;17.57;51.13;96043.31;4932747;28;20224;-84
2023/06/27 02:14:06;;;;;;;5.13;2.10;;;;;;;17.53;51.76;96037.63;4965031;28;20286;-83
2023/06/27 02:16:32;;;;;;;5.00;2.40;;;;;;;17.59;51.37;96040.53;4944760;28;20219;-84
2023/06/27 02:18:57;;;;;;;4.05;2.55;;;;;;;17.46;51.86;96043.75;4965006;28;20209;-83
2023/06/27 02:21:22;;;;;;;4.45;2.03;;;;;;;17.46;51.63;96035.88;4966369;28;20191;-83
2023/06/27 02:23:48;;;;;;;5.43;2.42;;;;;;;17.46;51.81;96033.25;4961708;28;20211;-85
2023/06/27 02:26:13;;;;;;;4.80;2.10;;;;;;;17.46;50.03;96030.63;4969949;28;20208;-83
2023/06/27 02:28:38;;;;;;;7.30;2.38;;;;;;;17.50;49.96;96032.72;4961847;28;20185;-84
2023/06/27 02:31:04;;;;;;;3.15;2.35;;;;;;;17.50;50.55;96024.03;4962168;28;20188;-83
2023/06/27 02:33:29;;;;;;;5.13;2.00;;;;;;;17.61;50.64;96020.97;4960584;28;20192;-84
2023/06/27 02:35:54;;;;;;;4.88;2.50;;;;;;;17.55;51.77;96019.88;4975454;28;20191;-84
2023/06/27 02:38:20;;;;;;;4.18;2.38;;;;;;;17.56;51.74;96018.03;4958544;28;20221;-83
2023/06/27 02:40:45;;;;;;;4.35;2.35;;;;;;;17.53;51.99;96026.28;4965385;28;20276;-84
2023/06/27 02:43:11;;;;;;;5.60;2.33;;;;;;;17.48;51.53;96034.69;4955524;28;20180;-83
2023/06/27 02:45:36;;;;;;;4.05;2.42;;;;;;;17.49;51.56;96025.84;4950478;28;20378;-84
2023/06/27 02:48:02;;;;;;;6.38;2.28;;;;;;;17.51;51.55;96025.66;4944896;28;20535;-83
2023/06/27 02:50:27;;;;;;;4.63;2.50;;;;;;;17.43;51.32;96016.06;4940078;28;20203;-83
2023/06/27 02:52:52;;;;;;;4.40;2.30;;;;;;;17.40;51.73;96020.81;4962620;28;20192;-85
2023/06/27 02:55:17;;;;;;;4.78;2.10;;;;;;;17.33;52.33;96025.19;4966702;28;20220;-83
2023/06/27 02:57:43;;;;;;;5.65;2.45;;;;;;;17.26;52.96;96023.25;4966515;28;20193;-83
2023/06/27 03:00:09;;;;;;;4.45;2.28;;;;;;;17.25;53.29;96034.75;4960512;28;20606;-83
2023/06/27 03:02:35;;;;;;;4.65;2.78;;;;;;;17.21;52.94;96032.63;4959995;28;20293;-83
2023/06/27 03:05:00;;;;;;;4.22;2.03;;;;;;;17.18;53.35;96033.00;4961079;28;20721;-83
2023/06/27 03:07:25;;;;;;;4.35;2.28;;;;;;;17.14;53.38;96037.81;4968224;28;20664;-83
2023/06/27 03:09:51;;;;;;;5.75;2.05;;;;;;;17.12;53.06;96026.66;4963322;28;20626;-85
2023/06/27 03:12:16;;;;;;;4.18;2.22;;;;;;;17.08;53.06;96033.25;4962074;28;20263;-83
2023/06/27 03:14:41;;;;;;;3.30;2.22;;;;;;;17.04;52.95;96041.63;4964929;28;20240;-83
2023/06/27 03:17:07;;;;;;;4.50;2.45;;;;;;;16.94;52.87;96039.25;4947504;28;20212;-84
2023/06/27 03:19:32;;;;;;;3.20;1.88;;;;;;;16.89;53.23;96033.72;4968259;28;20212;-83
2023/06/27 03:21:57;;;;;;;3.70;2.45;;;;;;;16.89;53.54;96034.53;4968743;28;20192;-83
2023/06/27 03:24:22;;;;;;;3.42;2.30;;;;;;;16.80;54.42;96029.53;4961567;28;20212;-83
2023/06/27 03:26:48;;;;;;;5.60;2.45;;;;;;;16.78;54.63;96039.34;4950781;28;20199;-84
2023/06/27 03:29:13;;;;;;;5.38;2.03;;;;;;;16.79;54.09;96033.16;4945511;28;20196;-84
2023/06/27 03:31:38;;;;;;;4.75;2.40;;;;;;;16.74;54.30;96033.66;4963306;28;20234;-83
2023/06/27 03:34:04;;;;;;;3.35;2.30;;;;;;;16.74;54.27;96035.47;4945108;28;20201;-84
2023/06/27 03:36:33;;;;;;;7.88;2.25;;;;;;;16.78;54.29;96034.09;4965855;28;20192;-84
2023/06/27 03:38:58;;;;;;;5.97;2.03;;;;;;;16.78;54.23;96036.72;4961178;28;20299;-84
2023/06/27 03:41:23;;;;;;;5.43;2.22;;;;;;;16.77;54.39;96035.09;4962506;28;20255;-84
2023/06/27 03:43:49;;;;;;;4.93;2.22;;;;;;;16.78;54.37;96037.53;4930168;28;20212;-83
2023/06/27 03:46:14;;;;;;;5.32;2.40;;;;;;;16.83;54.35;96035.22;4953199;28;20231;-84
2023/06/27 03:48:40;;;;;;;4.32;2.28;;;;;;;16.68;54.46;96036.94;4963360;28;20228;-83
2023/06/27 03:51:05;;;;;;;3.00;2.20;;;;;;;16.68;54.42;96031.69;4940946;28;20548;-85
2023/06/27 03:53:31;;;;;;;4.38;2.22;;;;;;;16.76;54.41;96038.72;4959212;28;20209;-84
2023/06/27 03:55:56;;;;;;;6.80;2.35;;;;;;;16.74;54.73;96038.06;4960294;28;20749;-85
2023/06/27 03:58:21;;;;;;;5.43;2.30;;;;;;;16.81;54.99;96044.28;4965597;28;20200;-84
2023/06/27 04:00:47;;;;;;;4.97;2.20;;;;;;;16.77;54.69;96041.16;4962883;28;20673;-84
2023/06/27 04:03:12;;;;;;;6.65;2.13;;;;;;;16.78;54.68;96031.47;4961269;28;20283;-83
2023/06/27 04:05:37;;;;;;;3.97;2.10;;;;;;;16.80;54.50;96035.59;4967514;28;20207;-84
2023/06/27 04:08:03;;;;;;;4.43;2.10;;;;;;;16.85;54.26;96038.47;4965058;28;20185;-83
2023/06/27 04:10:28;;;;;;;6.05;2.05;;;;;;;16.88;54.57;96042.59;4958982;28;20196;-83
2023/06/27 04:12:53;;;;;;;6.93;2.50;;;;;;;16.91;54.14;96047.47;4959453;28;20287;-83
2023/06/27 04:15:19;;;;;;;5.38;2.10;;;;;;;16.85;54.18;96045.53;4962431;28;20252;-83
2023/06/27 04:17:45;;;;;;;4.97;2.00;;;;;;;16.88;54.38;96034.72;4961986;28;20197;-83
2023/06/27 04:20:11;;;;;;;5.65;2.30;;;;;;;16.94;53.98;96040.06;4961043;28;20240;-83
2023/06/27 04:22:37;;;;;;;6.38;2.28;;;;;;;17.02;54.23;96041.00;4987396;28;20268;-84
2023/06/27 04:25:02;;;;;;;3.95;2.45;;;;;;;17.03;54.03;96035.56;4989740;28;20212;-87
2023/06/27 04:27:27;;;;;;;5.60;2.63;;;;;;;17.09;53.94;96034.88;5001127;28;20176;-88
2023/06/27 04:29:53;;;;;;;4.85;2.72;;;;;;;17.22;53.63;96040.34;5001212;28;20196;-86
2023/06/27 04:32:18;;;;;;;5.50;2.10;;;;;;;17.21;53.28;96038.69;4973992;28;20208;-85
2023/06/27 04:34:43;;;;;;;4.25;2.45;;;;;;;17.28;52.60;96034.38;5000730;28;20203;-86
2023/06/27 04:37:09;;;;;;;6.60;1.90;;;;;;;17.33;52.78;96044.38;4995420;28;20212;-84
2023/06/27 04:39:34;;;;;;;4.22;2.33;;;;;;;17.38;52.43;96049.88;4964739;28;20189;-86
2023/06/27 04:41:59;;;;;;;7.45;2.42;;;;;;;17.40;52.05;96047.88;4984015;28;20192;-85
2023/06/27 04:44:25;;;;;;;5.93;2.05;;;;;;;17.44;51.70;96048.38;4996593;28;20196;-86
2023/06/27 04:46:52;;;;;;;3.25;1.90;;;;;;;17.61;51.62;96047.22;4957936;28;20197;-82
2023/06/27 04:49:17;;;;;;;6.63;2.60;;;;;;;17.76;51.09;96055.16;4952083;28;20195;-83
2023/06/27 04:51:42;;;;;;;3.80;2.00;;;;;;;17.93;50.61;96047.91;4970950;28;20189;-83
2023/06/27 04:54:08;;;;;;;3.50;1.70;;;;;;;17.90;50.68;96058.78;4953735;28;20721;-83
2023/06/27 04:56:33;;;;;;;5.70;2.20;;;;;;;17.95;50.53;96059.06;4970147;28;20193;-81
2023/06/27 04:58:59;;;;;;;3.75;1.90;;;;;;;18.11;50.30;96058.91;4967011;28;20204;-81
2023/06/27 05:01:25;;;;;;;2.58;2.20;;;;;;;18.24;50.21;96056.44;4947435;28;20618;-81
2023/06/27 05:03:52;;;;;;;4.97;2.30;;;;;;;18.36;49.75;96054.94;4942486;28;20308;-82
2023/06/27 05:06:17;;;;;;;5.28;1.88;;;;;;;18.56;49.72;96060.47;4968446;28;20217;-81
2023/06/27 05:08:42;;;;;;;6.38;1.77;;;;;;;18.69;49.11;96057.19;4966455;28;20176;-81
2023/06/27 05:11:08;;;;;;;5.57;2.00;;;;;;;18.91;48.59;96066.75;4970455;28;20192;-82
2023/06/27 05:13:33;;;;;;;6.85;2.25;;;;;;;18.96;48.71;96056.47;4951584;28;20185;-82
2023/06/27 05:15:58;;;;;;;5.57;2.38;;;;;;;19.30;47.44;96054.16;4956943;28;20208;-82
2023/06/27 05:18:25;;;;;;;4.25;1.90;;;;;;;19.73;46.21;96058.38;4964038;28;20217;-82
2023/06/27 05:20:50;;;;;;;6.50;2.03;;;;;;;20.46;44.72;96050.09;4949642;28;20655;-83
2023/06/27 05:23:16;;;;;;;7.03;2.03;;;;;;;20.93;43.90;96054.50;4964253;28;20268;-82
2023/06/27 05:25:41;;;;;;;4.00;2.03;;;;;;;20.75;43.31;96062.16;4964953;28;20271;-83
2023/06/27 05:28:07;;;;;;;5.72;1.90;;;;;;;20.89;43.22;96061.22;4968246;28;20199;-83
2023/06/27 05:30:33;;;;;;;5.47;2.20;;;;;;;20.89;42.99;96064.66;4952859;28;20200;-83
2023/06/27 05:32:58;;;;;;;3.28;1.92;;;;;;;20.72;43.22;96060.75;4965857;28;20188;-82
2023/06/27 05:35:24;;;;;;;3.90;1.88;;;;;;;20.68;44.35;96071.91;4957874;28;20291;-83
2023/06/27 05:37:50;;;;;;;6.32;1.90;;;;;;;20.55;43.03;96070.84;4960941;28;20220;-82
2023/06/27 05:40:15;;;;;;;5.10;2.17;;;;;;;20.39;42.98;96063.22;4971043;28;20278;-84
2023/06/27 05:42:40;;;;;;;4.07;1.98;;;;;;;20.50;43.03;96064.53;4972858;28;20229;-83
2023/06/27 05:45:06;;;;;;;4.93;2.13;;;;;;;21.39;41.84;96085.50;4954675;28;20928;-86
2023/06/27 05:47:32;;;;;;;4.97;1.98;;;;;;;22.54;39.55;96086.81;4966884;28;20685;-84
2023/06/27 05:49:57;;;;;;;3.75;2.05;;;;;;;22.04;40.21;96075.91;4973272;28;20275;-78
2023/06/27 05:52:23;;;;;;;3.45;2.10;;;;;;;22.68;39.67;96082.28;4966387;28;20184;-87
2023/06/27 05:54:49;;;;;;;5.88;1.92;;;;;;;23.30;37.99;96080.75;4965768;28;20231;-85
2023/06/27 05:57:15;;;;;;;3.33;1.80;;;;;;;22.99;38.14;96076.25;4958438;28;20283;-86
2023/06/27 05:59:40;;;;;;;3.70;1.98;;;;;;;23.54;37.81;96079.97;4975359;28;20710;-87
2023/06/27 06:02:06;;;;;;;5.20;1.98;;;;;;;24.05;35.90;96072.84;4923819;29;20193;-87
2023/06/27 06:04:31;;;;;;;4.75;2.05;;;;;;;24.08;35.58;96072.41;4939049;28;20232;-87
2023/06/27 06:06:58;;;;;;;3.60;1.80;;;;;;;23.34;36.91;96076.66;4947139;28;20188;-87
2023/06/27 06:09:24;;;;;;;5.60;1.95;;;;;;;23.36;36.01;96075.41;4933998;28;20188;-87
2023/06/27 06:11:49;;;;;;;3.97;2.00;;;;;;;22.74;37.85;96076.16;4953714;28;20184;-87
2023/06/27 06:14:15;;;;;;;3.92;1.90;;;;;;;23.30;37.93;96073.59;4931888;28;20590;-87
2023/06/27 06:16:43;;;;;;;4.47;1.75;;;;;;;23.39;36.36;96067.03;4946909;28;20232;-85
2023/06/27 06:19:09;;;;;;;2.67;1.90;;;;;;;23.48;36.59;96064.91;4941062;28;20201;-82
2023/06/27 06:21:34;;;;;;;3.05;1.70;;;;;;;23.16;37.37;96072.09;4969914;28;20312;-84
2023/06/27 06:24:00;;;;;;;4.93;1.63;;;;;;;22.87;37.89;96068.97;4957762;28;20577;-84
2023/06/27 06:26:25;;;;;;;2.88;1.85;;;;;;;23.41;36.75;96072.09;4959693;28;20192;-82
2023/06/27 06:28:51;;;;;;;7.07;2.30;;;;;;;23.94;36.27;96066.38;4941796;28;20258;-83
2023/06/27 06:31:16;;;;;;;7.63;2.20;;;;;;;24.63;34.69;96077.75;4950319;28;20192;-83
2023/06/27 06:33:45;;;;;;;5.20;2.17;;;;;;;25.50;32.48;96073.72;4977049;28;20247;-84
2023/06/27 06:36:12;;;;;;;5.50;2.08;;;;;;;25.42;32.30;96074.84;4959222;28;20185;-83
2023/06/27 06:38:37;;;;;;;5.55;2.00;;;;;;;26.52;30.82;96071.59;4967226;28;20681;-83
2023/06/27 06:41:03;;;;;;;5.10;2.00;;;;;;;26.66;29.85;96072.09;4955964;28;20243;-84
2023/06/27 06:43:28;;;;;;;5.47;2.13;;;;;;;26.06;31.89;96076.91;4962416;28;20188;-84
2023/06/27 06:45:54;;;;;;;7.85;2.20;;;;;;;26.87;29.27;96076.00;4978419;28;20207;-85
2023/06/27 06:48:19;;;;;;;3.47;1.83;;;;;;;26.21;30.16;96085.25;4979554;28;20176;-83
2023/06/27 06:50:45;;;;;;;6.22;2.20;;;;;;;25.41;31.13;96085.72;4958925;28;20243;-85
2023/06/27 06:53:10;;;;;;;6.43;2.20;;;;;;;25.58;31.39;96088.53;4965011;28;20257;-83
2023/06/27 06:55:35;;;;;;;3.58;1.90;;;;;;;25.84;31.39;96076.69;4958928;28;20296;-85
2023/06/27 06:58:01;;;;;;;4.63;2.10;;;;;;;27.06;29.63;96076.66;4946193;28;20196;-84
2023/06/27 07:00:26;;;;;;;4.55;1.85;;;;;;;26.76;29.92;96090.16;4943050;28;20292;-85
2023/06/27 07:02:52;;;;;;;7.75;1.80;;;;;;;27.19;29.00;96076.34;4946381;28;20210;-84
2023/06/27 07:05:17;;;;;;;6.50;2.17;;;;;;;27.16;28.87;96082.16;4981777;28;20270;-85
2023/06/27 07:07:42;;;;;;;4.70;2.20;;;;;;;26.60;29.76;96083.72;4979046;28;20561;-84
2023/06/27 07:10:08;;;;;;;5.05;1.83;;;;;;;26.94;29.56;96081.97;4971103;28;20207;-84
2023/06/27 07:12:34;;;;;;;3.28;1.98;;;;;;;26.27;30.67;96084.31;4965343;28;20512;-84
2023/06/27 07:14:59;;;;;;;6.57;2.35;;;;;;;25.13;32.00;96088.97;4947909;28;20220;-84
2023/06/27 07:17:24;;;;;;;4.88;2.17;;;;;;;25.95;30.79;96076.69;4979343;28;20191;-84
2023/06/27 07:19:50;;;;;;;3.42;1.85;;;;;;;27.38;28.42;96088.41;4984802;28;20189;-85
2023/06/27 07:22:15;;;;;;;4.07;1.77;;;;;;;26.41;29.29;96085.69;4960798;28;20189;-87
2023/06/27 07:24:40;;;;;;;6.15;2.10;;;;;;;25.37;31.93;96087.22;4956713;28;20223;-84
2023/06/27 07:27:06;;;;;;;70.70;9.10;;;;;;;26.76;29.34;96082.16;4961549;28;20650;-85
2023/06/27 07:29:32;;;;;;;5.15;2.20;;;;;;;27.00;28.70;96086.38;4955603;28;20189;-84
2023/06/27 07:31:57;;;;;;;3.90;1.95;;;;;;;26.26;28.96;96083.50;4961918;28;20219;-85
2023/06/27 07:34:22;;;;;;;3.47;1.88;;;;;;;23.60;32.30;96089.75;4958721;28;20698;-83
2023/06/27 07:36:48;;;;;;;5.15;2.00;;;;;;;24.47;32.11;96082.63;4969320;28;20549;-84
2023/06/27 07:39:16;;;;;;;4.43;2.78;;;;;;;24.14;33.78;96088.25;4987526;28;20216;-85
2023/06/27 07:41:41;;;;;;;4.85;2.15;;;;;;;22.83;35.13;96080.19;4936134;28;20259;-83
2023/06/27 07:44:06;;;;;;;3.38;2.08;;;;;;;23.32;33.66;96086.63;4963785;28;20788;-86
2023/06/27 07:46:32;;;;;;;4.72;1.60;;;;;;;24.35;30.71;96087.03;4953815;28;20227;-83
2023/06/27 07:48:59;;;;;;;9.60;2.08;;;;;;;24.41;32.50;96090.66;4974465;28;20192;-84
2023/06/27 07:51:28;;;;;;;3.35;1.80;;;;;;;25.22;31.12;96092.94;4967944;28;20192;-82
2023/06/27 07:53:56;;;;;;;8.70;2.30;;;;;;;24.54;32.61;96091.31;4946537;28;20200;-83
2023/06/27 07:56:22;;;;;;;7.78;2.05;;;;;;;24.67;32.87;96087.72;4945245;28;20191;-83
2023/06/27 07:58:47;;;;;;;5.15;2.10;;;;;;;23.11;34.22;96090.44;4952589;28;20197;-83
2023/06/27 08:01:12;;;;;;;3.17;1.95;;;;;;;23.80;33.05;96086.94;4962114;28;20276;-84
2023/06/27 08:03:38;;;;;;;7.57;2.30;;;;;;;24.16;32.25;96082.72;4959810;28;20205;-86
2023/06/27 08:06:04;;;;;;;6.45;1.90;;;;;;;25.06;30.87;96077.63;4951879;28;20193;-84
2023/06/27 08:08:29;;;;;;;4.85;2.20;;;;;;;23.76;33.44;96077.78;4975937;28;20306;-84
2023/06/27 08:10:56;;;;;;;4.20;2.10;;;;;;;24.26;32.51;96080.38;4950454;29;20217;-84
2023/06/27 08:13:24;;;;;;;4.57;2.20;;;;;;;24.57;31.82;96069.66;4961708;28;20184;-83
2023/06/27 08:15:50;;;;;;;6.30;1.65;;;;;;;25.22;30.79;96068.22;4933734;29;20260;-85
2023/06/27 08:18:15;;;;;;;4.20;2.67;;;;;;;25.53;31.73;96061.81;4983400;28;20216;-87
2023/06/27 08:20:41;;;;;;;3.00;2.13;;;;;;;26.03;29.91;96058.75;4965289;28;20308;-87
2023/06/27 08:23:06;;;;;;;7.20;2.28;;;;;;;24.08;33.36;96070.56;4984548;28;20196;-88
2023/06/27 08:25:32;;;;;;;4.60;2.13;;;;;;;23.94;33.44;96059.28;4982561;28;20236;-84
2023/06/27 08:27:57;;;;;;;4.03;2.38;;;;;;;23.94;33.36;96058.44;4988115;28;20284;-83
2023/06/27 08:30:22;;;;;;;5.57;2.40;;;;;;;25.30;31.37;96062.56;4957911;28;20737;-82
2023/06/27 08:32:48;;;;;;;2.75;2.00;;;;;;;25.37;31.19;96057.97;4952310;28;20685;-84
2023/06/27 08:35:13;;;;;;;4.40;2.20;;;;;;;25.39;31.90;96053.25;4945573;28;20722;-86
2023/06/27 08:37:38;;;;;;;5.68;2.10;;;;;;;25.37;31.38;96056.13;4942672;28;20204;-84
2023/06/27 08:40:04;;;;;;;6.13;2.00;;;;;;;25.74;30.65;96042.69;4991129;28;20208;-85
2023/06/27 08:42:32;;;;;;;5.07;2.08;;;;;;;24.90;32.09;96051.66;4948207;28;20188;-85
2023/06/27 08:45:00;;;;;;;5.35;2.17;;;;;;;24.68;32.28;96048.69;4983625;28;20291;-86
2023/06/27 08:47:27;;;;;;;4.38;2.28;;;;;;;24.51;33.63;96037.84;4960579;28;20184;-85
2023/06/27 08:50:00;;;;;;;5.32;2.40;;;;;;;24.61;33.15;96047.94;4985877;28;20202;-87
2023/06/27 08:52:25;;;;;;;6.30;2.03;;;;;;;24.19;33.06;96045.13;4952018;28;20197;-83
2023/06/27 08:54:55;;;;;;;4.13;2.30;;;;;;;23.96;33.63;96046.59;4957237;28;20299;-85
2023/06/27 08:57:25;;;;;;;7.15;2.30;;;;;;;24.34;33.66;96050.09;4958114;28;20235;-83
2023/06/27 08:59:51;;;;;;;5.45;2.47;;;;;;;24.12;32.64;96033.78;4970805;28;20212;-83
2023/06/27 09:02:16;;;;;;;7.05;2.53;;;;;;;24.77;32.68;96037.53;4967819;28;20189;-84
2023/06/27 09:04:43;;;;;;;17.13;3.55;;;;;;;25.27;32.14;96041.78;4940138;28;20614;-84
2023/06/27 09:07:10;;;;;;;6.75;2.88;;;;;;;24.80;33.23;96030.94;4953747;28;20182;-84
2023/06/27 09:09:36;;;;;;;5.35;2.25;;;;;;;25.11;31.98;96029.94;4981432;28;20232;-84
2023/06/27 09:12:08;;;;;;;5.97;2.33;;;;;;;24.81;32.82;96037.88;4954181;28;20653;-84
2023/06/27 09:14:39;;;;;;;5.47;2.33;;;;;;;25.01;32.98;96033.13;4962536;28;20238;-85
2023/06/27 09:17:10;;;;;;;4.90;2.33;;;;;;;24.39;33.67;96029.84;4945203;28;20208;-86
2023/06/27 09:19:37;;;;;;;12.80;2.38;;;;;;;24.50;32.83;96029.09;4964574;28;20604;-85
2023/06/27 09:22:09;;;;;;;6.53;2.90;;;;;;;23.84;33.64;96035.06;4949015;28;20185;-83
2023/06/27 09:24:40;;;;;;;4.80;2.17;;;;;;;22.57;35.53;96026.31;4959082;28;20231;-83
2023/06/27 09:27:11;;;;;;;4.72;2.55;;;;;;;23.24;35.53;96026.78;4935622;28;20738;-86
2023/06/27 09:29:37;;;;;;;5.13;1.90;;;;;;;22.99;35.40;96033.88;4937804;29;20185;-85
2023/06/27 09:32:21;;;;;;;3.45;1.92;;;;;;;22.05;35.53;96029.94;4957755;28;20304;-82
2023/06/27 09:34:59;;;;;;;3.78;2.30;;;;;;;22.09;36.71;96023.25;4963800;28;20215;-85
2023/06/27 09:37:32;;;;;;;3.00;2.28;;;;;;;22.97;34.95;96026.16;4947085;28;20201;-85
2023/06/27 09:39:57;;;;;;;3.50;1.88;;;;;;;22.93;34.51;96030.25;4981952;28;20203;-85
2023/06/27 09:42:24;;;;;;;7.93;2.78;;;;;;;22.34;35.73;96031.31;4976163;28;20641;-83
2023/06/27 09:44:50;;;;;;;4.32;2.03;;;;;;;22.19;36.04;96031.56;4965141;28;20216;-82
2023/06/27 09:47:15;;;;;;;4.18;1.90;;;;;;;22.49;35.73;96031.84;4947523;28;20193;-83
2023/06/27 09:49:42;;;;;;;5.60;2.20;;;;;;;21.95;36.44;96037.50;4962118;28;20240;-82
2023/06/27 09:52:10;;;;;;;4.60;1.98;;;;;;;21.84;36.87;96027.56;4958015;28;20245;-82
2023/06/27 09:54:42;;;;;;;5.45;2.42;;;;;;;22.55;35.25;96028.38;4972256;28;20213;-85
2023/06/27 09:57:21;;;;;;;3.30;2.30;;;;;;;22.34;36.11;96036.59;4978448;28;20184;-84
2023/06/27 09:59:46;;;;;;;5.80;2.08;;;;;;;23.49;34.26;96033.91;4977226;28;20287;-85
2023/06/27 10:02:13;;;;;;;5.30;1.88;;;;;;;23.42;35.04;96029.50;4960097;28;20237;-83
2023/06/27 10:04:38;;;;;;;5.82;2.15;;;;;;;24.14;33.41;96035.19;4948371;28;20208;-84
2023/06/27 10:07:03;;;;;;;8.15;2.20;;;;;;;23.00;34.98;96038.16;4950172;28;20203;-84
2023/06/27 10:09:29;;;;;;;6.93;2.25;;;;;;;24.25;33.55;96037.09;4960876;28;20618;-83
2023/06/27 10:11:54;;;;;;;8.10;2.17;;;;;;;24.44;32.85;96037.94;4954242;28;20188;-83
2023/06/27 10:14:21;;;;;;;3.67;1.80;;;;;;;25.26;32.28;96045.44;4970663;28;20242;-84
2023/06/27 10:16:47;;;;;;;3.58;1.83;;;;;;;24.33;32.08;96037.88;4952270;28;20716;-84
2023/06/27 10:19:13;;;;;;;3.20;2.00;;;;;;;24.70;32.61;96043.97;4973103;28;20211;-82
2023/06/27 10:21:38;;;;;;;5.63;2.20;;;;;;;24.78;32.18;96041.81;4959824;28;20200;-82
2023/06/27 10:24:04;;;;;;;5.63;2.22;;;;;;;23.54;33.34;96034.91;4970240;28;20227;-82
2023/06/27 10:26:30;;;;;;;5.38;2.45;;;;;;;23.47;33.90;96036.78;4958023;28;20189;-84
2023/06/27 10:28:56;;;;;;;6.95;2.20;;;;;;;24.08;32.88;96041.38;4968835;28;20188;-84
2023/06/27 10:31:45;;;;;;;5.95;2.00;;;;;;;24.46;32.86;96030.56;4963473;28;20189;-83
2023/06/27 10:34:18;;;;;;;5.90;2.72;;;;;;;24.05;33.15;96039.16;4974879;28;20231;-84
2023/06/27 10:37:00;;;;;;;4.43;2.30;;;;;;;23.94;32.61;96032.75;4946399;28;20207;-83
2023/06/27 10:39:30;;;;;;;5.15;2.22;;;;;;;24.48;33.49;96036.47;4972506;28;20236;-82
2023/06/27 10:42:25;;;;;;;5.43;2.90;;;;;;;23.92;34.57;96034.78;4968412;28;20197;-83
2023/06/27 10:44:59;;;;;;;6.30;3.00;;;;;;;24.11;34.02;96026.84;4965734;28;20270;-83
2023/06/27 10:47:27;;;;;;;6.82;3.78;;;;;;;24.57;33.71;96043.09;4974397;28;20246;-81
2023/06/27 10:49:53;;;;;;;6.78;2.50;;;;;;;24.96;33.41;96034.81;4969515;28;20185;-83
2023/06/27 10:52:23;;;;;;;4.35;2.33;;;;;;;24.82;33.29;96035.00;4956150;28;20203;-83
2023/06/27 10:55:14;;;;;;;8.35;2.47;;;;;;;25.05;32.23;96034.31;4954582;28;20291;-82
2023/06/27 10:57:40;;;;;;;3.63;2.10;;;;;;;24.74;32.66;96040.63;4970604;28;20184;-82
2023/06/27 11:00:13;;;;;;;7.00;2.70;;;;;;;25.31;33.19;96042.94;4959421;28;20208;-83
2023/06/27 11:02:44;;;;;;;3.58;2.13;;;;;;;25.37;32.78;96047.34;4967389;28;20708;-83
2023/06/27 11:05:13;;;;;;;4.15;2.33;;;;;;;25.01;32.51;96045.59;4956401;28;20217;-82
2023/06/27 11:07:38;;;;;;;8.05;2.65;;;;;;;24.46;33.28;96041.16;4951196;28;20197;-83
2023/06/27 11:10:22;;;;;;;5.05;2.20;;;;;;;23.12;35.09;96044.38;4969013;28;20248;-83
2023/06/27 11:12:49;;;;;;;3.45;2.30;;;;;;;24.12;35.53;96045.22;4946000;28;20187;-83
2023/06/27 11:15:15;;;;;;;7.68;2.95;;;;;;;24.72;33.38;96047.19;4957080;28;20606;-78
2023/06/27 11:17:40;;;;;;;4.88;2.30;;;;;;;24.90;32.26;96041.03;4955547;28;20279;-79
2023/06/27 11:20:08;;;;;;;4.57;2.28;;;;;;;24.89;32.64;96044.72;4972747;28;20669;-80
2023/06/27 11:22:33;;;;;;;3.58;2.03;;;;;;;24.35;33.82;96039.25;4971451;28;20267;-81
2023/06/27 11:24:58;;;;;;;5.10;2.22;;;;;;;25.39;31.64;96047.91;4965366;28;20295;-85
2023/06/27 11:27:29;;;;;;;6.18;2.67;;;;;;;25.26;31.83;96032.97;4950115;28;20184;-83
2023/06/27 11:29:57;;;;;;;2.60;2.22;;;;;;;24.78;31.10;96046.31;4973097;28;20192;-84
2023/06/27 11:32:24;;;;;;;5.55;2.40;;;;;;;24.44;32.95;96047.75;4954143;28;20192;-83